Time;durP1;ratioP1;P1;durP2;ratioP2;P2;SDS_P1;SDS_P2;PMS_P1;PMS_P2;Temp;Humidity;BMP_temperature;BMP_pressure;BME280_temperature;BME280_humidity;BME280_pressure;Samples;Min_cycle;Max_cycle;Signal;HPM_P1;HPM_P2
2023/07/26 00:01:26;;;;;;;9.15;4.30;;;;;;;27.24;66.47;92148.66;5069050;28;20052;-73
2023/07/26 00:03:54;;;;;;;10.45;5.07;;;;;;;27.20;66.58;92151.19;5068453;28;20441;-73
2023/07/26 00:06:21;;;;;;;8.70;4.13;;;;;;;27.18;65.97;92145.50;5069121;28;20052;-73
2023/07/26 00:08:48;;;;;;;9.50;4.78;;;;;;;27.15;65.66;92142.78;5069743;28;20445;-73
2023/07/26 00:11:15;;;;;;;10.98;4.05;;;;;;;27.19;65.45;92143.63;5069277;28;20133;-73
2023/07/26 00:13:43;;;;;;;8.68;3.92;;;;;;;27.16;64.78;92142.44;5068500;28;20090;-73
2023/07/26 00:16:09;;;;;;;7.72;4.53;;;;;;;27.17;64.62;92135.31;5069019;28;20102;-72
2023/07/26 00:18:36;;;;;;;9.80;3.83;;;;;;;27.17;64.73;92133.41;5069009;28;20048;-72
2023/07/26 00:21:03;;;;;;;7.18;4.70;;;;;;;27.18;64.37;92127.03;5068440;28;20052;-72
2023/07/26 00:23:30;;;;;;;10.70;4.50;;;;;;;27.13;64.63;92122.06;5068691;28;20105;-72
2023/07/26 00:25:57;;;;;;;7.93;3.88;;;;;;;27.19;64.28;92133.88;5069074;28;20048;-73
2023/07/26 00:28:23;;;;;;;9.98;4.78;;;;;;;27.15;64.22;92130.38;5068381;28;20064;-73
2023/07/26 00:30:52;;;;;;;10.00;3.70;;;;;;;27.14;64.38;92122.78;5065343;28;20048;-73
2023/07/26 00:33:18;;;;;;;8.63;3.85;;;;;;;27.13;63.96;92122.06;5068389;28;20056;-73
2023/07/26 00:35:45;;;;;;;13.07;4.45;;;;;;;27.14;63.54;92128.84;5068547;28;20572;-73
2023/07/26 00:38:12;;;;;;;8.60;3.67;;;;;;;27.14;63.47;92130.69;5067908;28;20040;-74
2023/07/26 00:40:39;;;;;;;9.88;3.88;;;;;;;27.15;63.70;92129.59;5068027;28;20057;-73
2023/07/26 00:43:06;;;;;;;8.93;4.30;;;;;;;27.13;63.50;92127.31;5068585;28;20090;-73
2023/07/26 00:45:36;;;;;;;7.38;3.47;;;;;;;27.09;63.52;92129.09;5068804;28;20049;-73
2023/07/26 00:48:05;;;;;;;9.70;4.60;;;;;;;27.02;63.30;92121.03;5067936;28;20054;-73
2023/07/26 00:50:32;;;;;;;10.20;4.00;;;;;;;27.08;63.97;92130.97;5068287;28;20048;-74
2023/07/26 00:52:59;;;;;;;8.65;4.38;;;;;;;27.07;63.74;92128.66;5068693;28;20093;-73
2023/07/26 00:55:27;;;;;;;8.60;4.60;;;;;;;27.05;64.00;92130.88;5067699;28;20565;-73
2023/07/26 00:57:53;;;;;;;7.50;4.50;;;;;;;26.98;64.40;92128.81;5068526;28;20151;-74
2023/07/26 01:00:20;;;;;;;9.52;4.50;;;;;;;27.00;64.62;92124.00;5064735;28;20109;-73
2023/07/26 01:02:47;;;;;;;10.02;4.90;;;;;;;26.99;65.16;92126.97;5067873;28;20101;-73
2023/07/26 01:05:16;;;;;;;9.73;4.50;;;;;;;26.97;65.22;92122.03;5067635;28;20070;-73
2023/07/26 01:08:03;;;;;;;10.65;4.50;;;;;;;26.96;64.86;92117.88;5068355;28;20132;-73
2023/07/26 01:10:34;;;;;;;6.63;3.85;;;;;;;26.94;65.44;92125.34;5068329;28;20102;-73
2023/07/26 01:13:15;;;;;;;9.15;3.97;;;;;;;26.94;64.89;92125.34;5067987;28;20052;-73
2023/07/26 01:15:44;;;;;;;6.70;3.78;;;;;;;26.90;64.84;92119.19;5067523;28;20836;-73
2023/07/26 01:18:12;;;;;;;12.65;4.90;;;;;;;26.88;65.03;92113.50;5068208;28;20053;-73
2023/07/26 01:20:41;;;;;;;10.52;4.63;;;;;;;26.87;64.94;92110.09;5067616;28;20472;-73
2023/07/26 01:23:10;;;;;;;9.95;4.28;;;;;;;26.87;65.07;92111.97;5067722;28;20048;-73
2023/07/26 01:25:37;;;;;;;11.65;4.30;;;;;;;26.88;65.00;92108.25;5068048;28;20052;-74
2023/07/26 01:28:03;;;;;;;7.78;5.10;;;;;;;26.88;65.14;92111.63;5067240;28;20045;-74
2023/07/26 01:30:32;;;;;;;8.43;4.10;;;;;;;26.85;65.29;92099.16;5067325;28;20163;-73
2023/07/26 01:33:03;;;;;;;11.48;4.43;;;;;;;26.86;65.44;92105.94;5067119;28;20048;-74
2023/07/26 01:35:31;;;;;;;7.50;4.47;;;;;;;26.78;65.56;92083.94;5067665;28;20455;-74
2023/07/26 01:37:59;;;;;;;7.32;3.85;;;;;;;26.74;65.52;92080.44;5066916;28;20084;-73
2023/07/26 01:40:28;;;;;;;8.05;4.03;;;;;;;26.61;65.68;92058.66;5067550;28;20052;-74
2023/07/26 01:42:55;;;;;;;8.60;4.40;;;;;;;26.78;65.62;92086.56;5067833;28;20098;-73
2023/07/26 01:45:22;;;;;;;9.40;4.70;;;;;;;26.77;66.10;92095.56;5066814;28;20052;-73
2023/07/26 01:47:49;;;;;;;6.22;3.70;;;;;;;26.73;65.89;92091.31;5067579;28;20102;-74
2023/07/26 01:50:16;;;;;;;12.07;3.90;;;;;;;26.70;66.26;92095.38;5067187;28;20110;-73
2023/07/26 01:52:42;;;;;;;11.45;4.45;;;;;;;26.69;66.51;92091.22;5067501;28;20066;-73
2023/07/26 01:55:09;;;;;;;10.95;4.18;;;;;;;26.49;66.04;92064.78;5067217;28;20052;-73
2023/07/26 01:57:38;;;;;;;8.73;3.85;;;;;;;26.72;66.30;92089.78;5066772;28;20131;-73
2023/07/26 02:00:06;;;;;;;7.53;4.55;;;;;;;26.67;66.25;92088.91;5067057;28;20047;-72
2023/07/26 02:02:33;;;;;;;12.75;5.13;;;;;;;26.65;66.05;92082.44;5067458;28;20052;-72
2023/07/26 02:05:00;;;;;;;8.57;4.10;;;;;;;26.64;66.32;92080.94;5066883;28;20048;-73
2023/07/26 02:07:27;;;;;;;7.47;4.30;;;;;;;26.66;66.61;92074.22;5066207;28;20057;-73
2023/07/26 02:09:54;;;;;;;10.98;3.85;;;;;;;26.53;66.21;92068.25;5066599;28;20036;-73
2023/07/26 02:12:21;;;;;;;11.23;4.82;;;;;;;26.61;66.47;92084.25;5066682;28;20517;-73
2023/07/26 02:14:49;;;;;;;11.38;5.18;;;;;;;26.55;65.93;92087.13;5066979;28;20095;-73
2023/07/26 02:17:16;;;;;;;10.57;4.57;;;;;;;26.53;65.74;92073.53;5066434;28;20465;-73
2023/07/26 02:19:43;;;;;;;11.13;4.07;;;;;;;26.56;66.55;92077.34;5067193;28;20044;-73
2023/07/26 02:22:09;;;;;;;9.32;4.25;;;;;;;26.52;66.75;92082.53;5062832;28;20583;-73
2023/07/26 02:24:36;;;;;;;7.95;3.92;;;;;;;26.37;67.07;92065.59;5066904;28;20044;-73
2023/07/26 02:27:03;;;;;;;8.90;4.78;;;;;;;26.48;67.66;92080.91;5066393;28;20520;-73
2023/07/26 02:29:30;;;;;;;7.80;4.28;;;;;;;26.44;67.96;92069.53;5066380;28;20044;-73
2023/07/26 02:31:59;;;;;;;11.73;5.30;;;;;;;26.41;68.21;92068.34;5066223;28;20105;-73
2023/07/26 02:34:25;;;;;;;11.18;4.53;;;;;;;26.36;69.21;92063.31;5066900;28;20052;-74
2023/07/26 02:36:52;;;;;;;9.40;4.53;;;;;;;26.38;69.59;92061.13;5063170;28;20398;-73
2023/07/26 02:39:19;;;;;;;10.50;4.78;;;;;;;26.39;68.87;92066.03;5066740;28;20052;-73
2023/07/26 02:41:46;;;;;;;10.27;4.13;;;;;;;26.35;69.11;92062.56;5065971;28;20054;-72
2023/07/26 02:44:12;;;;;;;9.55;4.18;;;;;;;26.29;69.53;92071.81;5065567;28;20044;-72
2023/07/26 02:46:39;;;;;;;7.55;3.90;;;;;;;26.30;69.72;92070.69;5065424;28;20051;-73
2023/07/26 02:49:07;;;;;;;7.78;4.20;;;;;;;26.27;69.65;92079.25;5066341;28;20040;-73
2023/07/26 02:51:34;;;;;;;10.30;4.80;;;;;;;26.25;69.47;92084.09;5065032;28;20052;-72
2023/07/26 02:54:00;;;;;;;8.73;4.38;;;;;;;26.23;69.64;92089.69;5066651;28;20044;-73
2023/07/26 02:56:27;;;;;;;6.55;3.90;;;;;;;26.19;70.49;92093.31;5066233;28;20158;-74
2023/07/26 02:58:54;;;;;;;10.18;4.47;;;;;;;26.12;70.78;92092.03;5065949;28;20432;-75
2023/07/26 03:01:20;;;;;;;9.57;4.30;;;;;;;26.03;70.99;92091.38;5065716;28;20098;-74
2023/07/26 03:03:47;;;;;;;7.35;4.40;;;;;;;26.07;70.84;92102.00;5066298;28;20556;-73
2023/07/26 03:06:15;;;;;;;6.85;4.07;;;;;;;26.06;71.71;92095.97;5066189;28;20052;-72
2023/07/26 03:08:42;;;;;;;9.38;4.45;;;;;;;26.06;71.56;92100.47;5066027;28;20110;-72
2023/07/26 03:11:08;;;;;;;7.30;3.85;;;;;;;26.03;72.67;92107.19;5066066;28;20045;-72
2023/07/26 03:13:35;;;;;;;10.02;4.53;;;;;;;26.04;72.48;92103.44;5066069;28;20094;-72
2023/07/26 03:16:02;;;;;;;11.25;4.75;;;;;;;26.00;72.77;92103.34;5065709;28;20444;-72
2023/07/26 03:18:29;;;;;;;11.48;4.75;;;;;;;25.98;72.40;92102.16;5065932;28;20052;-71
2023/07/26 03:20:55;;;;;;;8.10;4.13;;;;;;;25.92;73.01;92096.34;5066188;28;20391;-72
2023/07/26 03:23:23;;;;;;;8.25;4.05;;;;;;;25.90;72.72;92093.28;5066445;28;20049;-72
2023/07/26 03:25:50;;;;;;;8.23;4.22;;;;;;;25.88;71.86;92103.38;5065110;28;20055;-71
2023/07/26 03:28:17;;;;;;;10.15;4.55;;;;;;;25.87;72.61;92093.97;5062521;28;20508;-72
2023/07/26 03:30:44;;;;;;;7.13;3.80;;;;;;;25.77;72.71;92095.19;5065352;28;20045;-72
2023/07/26 03:33:10;;;;;;;9.52;4.70;;;;;;;25.77;72.19;92097.81;5065768;28;20505;-72
2023/07/26 03:35:37;;;;;;;7.10;4.20;;;;;;;25.81;72.24;92105.78;5065223;28;20052;-72
2023/07/26 03:38:04;;;;;;;11.82;4.13;;;;;;;25.81;71.97;92095.28;5065001;28;20048;-72
2023/07/26 03:40:32;;;;;;;9.48;4.20;;;;;;;25.78;71.66;92101.97;5063981;28;20804;-72
2023/07/26 03:42:59;;;;;;;9.02;4.20;;;;;;;25.74;72.00;92095.84;5064828;28;20053;-72
2023/07/26 03:45:26;;;;;;;7.10;3.95;;;;;;;25.69;71.98;92090.81;5065817;28;20090;-72
2023/07/26 03:47:53;;;;;;;9.07;3.80;;;;;;;25.74;71.67;92101.88;5062920;28;20094;-73
2023/07/26 03:50:20;;;;;;;10.55;4.25;;;;;;;25.69;72.06;92103.97;5065957;28;20045;-73
2023/07/26 03:52:47;;;;;;;7.32;3.90;;;;;;;25.63;72.29;92100.78;5064943;28;20044;-73
2023/07/26 03:55:13;;;;;;;8.40;4.50;;;;;;;25.59;72.82;92098.06;5063582;28;20449;-73
2023/07/26 03:57:42;;;;;;;11.65;4.70;;;;;;;25.54;72.39;92108.06;5067674;28;20067;-73
2023/07/26 04:00:09;;;;;;;7.25;4.13;;;;;;;25.50;72.56;92110.53;5067596;28;20495;-74
2023/07/26 04:02:36;;;;;;;8.32;4.15;;;;;;;25.49;73.34;92107.16;5066713;28;20080;-73
2023/07/26 04:05:03;;;;;;;8.20;4.22;;;;;;;25.49;73.05;92106.38;5065768;28;20125;-73
2023/07/26 04:07:30;;;;;;;8.55;3.92;;;;;;;25.53;73.20;92111.72;5065163;28;20126;-73
2023/07/26 04:09:59;;;;;;;9.18;4.70;;;;;;;25.56;73.10;92108.47;5063362;28;20101;-73
2023/07/26 04:12:25;;;;;;;9.75;4.25;;;;;;;25.60;73.17;92115.38;5066157;28;20079;-72
2023/07/26 04:14:54;;;;;;;7.18;4.00;;;;;;;25.58;72.69;92116.78;5062717;28;20596;-72
2023/07/26 04:17:20;;;;;;;12.63;4.10;;;;;;;25.65;72.50;92111.75;5063825;28;20141;-72
2023/07/26 04:19:47;;;;;;;9.02;4.85;;;;;;;25.69;72.12;92103.97;5064270;28;20630;-72
2023/07/26 04:22:14;;;;;;;6.45;3.50;;;;;;;25.72;71.92;92111.19;5068199;28;20057;-73
2023/07/26 04:24:42;;;;;;;10.90;4.20;;;;;;;25.72;72.34;92108.56;5068390;28;20567;-73
2023/07/26 04:27:09;;;;;;;10.05;4.10;;;;;;;25.75;71.60;92108.66;5069085;28;21093;-73
2023/07/26 04:29:36;;;;;;;10.15;5.22;;;;;;;25.78;71.47;92112.47;5068635;28;20118;-73
2023/07/26 04:32:05;;;;;;;8.90;5.03;;;;;;;25.80;71.84;92107.69;5069000;28;20614;-73
2023/07/26 04:34:32;;;;;;;7.53;3.58;;;;;;;25.84;71.46;92098.03;5068997;28;20045;-77
2023/07/26 04:36:58;;;;;;;11.48;5.60;;;;;;;25.86;70.17;92087.94;5067747;28;20559;-73
2023/07/26 04:39:25;;;;;;;12.32;4.32;;;;;;;26.01;70.15;92110.13;5068685;28;20097;-73
2023/07/26 04:41:52;;;;;;;8.35;4.55;;;;;;;26.10;69.14;92106.63;5068376;28;20449;-73
2023/07/26 04:44:18;;;;;;;6.50;4.05;;;;;;;26.16;67.87;92102.63;5068930;28;20086;-73
2023/07/26 04:46:45;;;;;;;7.28;4.10;;;;;;;26.22;66.88;92103.94;5067879;28;20118;-73
2023/07/26 04:49:13;;;;;;;12.35;4.30;;;;;;;26.30;66.44;92114.66;5068553;28;20102;-73
2023/07/26 04:51:40;;;;;;;7.50;3.63;;;;;;;26.37;66.50;92107.72;5068667;28;20095;-73
2023/07/26 04:54:07;;;;;;;8.80;3.60;;;;;;;26.46;66.93;92117.34;5067474;28;20510;-73
2023/07/26 04:56:33;;;;;;;7.97;3.58;;;;;;;26.55;65.77;92117.97;5068577;28;20045;-73
2023/07/26 04:59:00;;;;;;;13.68;4.53;;;;;;;26.61;65.71;92121.13;5066956;28;20395;-73
2023/07/26 05:01:27;;;;;;;9.60;4.03;;;;;;;26.68;65.76;92122.06;5068237;28;20044;-73
2023/07/26 05:03:53;;;;;;;8.55;4.38;;;;;;;26.77;66.04;92121.13;5067693;28;20048;-73
2023/07/26 05:06:24;;;;;;;8.43;3.70;;;;;;;26.81;65.94;92120.13;5066843;28;20967;-73
2023/07/26 05:08:51;;;;;;;8.95;4.15;;;;;;;26.89;65.53;92128.97;5065629;28;20051;-73
2023/07/26 05:11:20;;;;;;;11.82;4.10;;;;;;;26.92;64.62;92120.41;5065997;28;20135;-73
2023/07/26 05:13:47;;;;;;;8.70;4.22;;;;;;;26.97;64.56;92127.31;5067056;28;20048;-73
2023/07/26 05:16:14;;;;;;;9.23;4.80;;;;;;;26.97;63.93;92127.31;5066508;28;20468;-73
2023/07/26 05:18:40;;;;;;;9.93;4.15;;;;;;;26.93;63.42;92123.81;5066583;28;20048;-73
2023/07/26 05:21:07;;;;;;;9.32;4.57;;;;;;;26.97;63.26;92129.19;5065548;28;20109;-73
2023/07/26 05:23:35;;;;;;;14.15;4.47;;;;;;;26.94;62.51;92125.34;5064545;28;20097;-73
2023/07/26 05:26:02;;;;;;;10.95;3.90;;;;;;;26.92;62.87;92136.22;5065289;28;20045;-73
2023/07/26 05:28:29;;;;;;;9.55;4.32;;;;;;;26.82;62.76;92118.25;5063770;28;20163;-73
2023/07/26 05:30:56;;;;;;;13.60;4.13;;;;;;;26.96;62.70;92136.31;5063284;28;20126;-73
2023/07/26 05:33:23;;;;;;;8.52;3.92;;;;;;;27.01;62.97;92143.97;5062651;28;20052;-73
2023/07/26 05:35:50;;;;;;;8.90;4.40;;;;;;;27.00;63.36;92134.53;5066019;28;20167;-73
2023/07/26 05:38:17;;;;;;;8.80;4.15;;;;;;;27.12;63.08;92146.84;5066921;28;20044;-73
2023/07/26 05:40:45;;;;;;;13.25;6.70;;;;;;;27.17;62.93;92151.88;5066589;28;20045;-73
2023/07/26 05:43:11;;;;;;;11.80;4.65;;;;;;;27.25;62.39;92150.16;5066497;28;20205;-73
2023/07/26 05:45:41;;;;;;;15.27;4.75;;;;;;;27.32;62.15;92155.59;5067227;28;20048;-72
2023/07/26 05:48:08;;;;;;;14.23;5.60;;;;;;;27.42;61.20;92150.94;5066255;28;20059;-73
2023/07/26 05:50:35;;;;;;;13.65;4.30;;;;;;;27.55;61.47;92146.31;5063978;28;20053;-73
2023/07/26 05:53:01;;;;;;;10.85;4.25;;;;;;;27.59;60.83;92149.84;5062218;28;20083;-72
2023/07/26 05:55:28;;;;;;;10.38;4.03;;;;;;;27.65;60.20;92150.34;5065282;28;20093;-73
2023/07/26 05:57:56;;;;;;;8.20;3.67;;;;;;;27.79;60.23;92152.53;5066916;28;20564;-73
2023/07/26 06:00:23;;;;;;;10.80;4.03;;;;;;;27.87;59.79;92138.38;5067453;28;20153;-73
2023/07/26 06:02:50;;;;;;;8.00;4.07;;;;;;;28.01;58.80;92128.09;5067267;28;20449;-72
2023/07/26 06:05:16;;;;;;;12.23;4.40;;;;;;;28.18;59.00;92120.16;5067135;28;20049;-73
2023/07/26 06:07:43;;;;;;;8.18;3.42;;;;;;;28.31;58.77;92126.81;5067711;28;20049;-73
2023/07/26 06:10:10;;;;;;;11.80;4.22;;;;;;;28.38;57.43;92126.22;5067630;28;20091;-73
2023/07/26 06:12:37;;;;;;;11.27;4.93;;;;;;;28.58;57.18;92129.59;5066959;28;20493;-73
2023/07/26 06:15:06;;;;;;;7.65;3.85;;;;;;;28.75;56.78;92119.69;5066775;28;20063;-73
2023/07/26 06:17:33;;;;;;;16.10;4.43;;;;;;;28.95;55.67;92123.06;5060516;28;20048;-73
2023/07/26 06:20:00;;;;;;;8.25;4.28;;;;;;;29.08;55.21;92115.75;5058020;28;20442;-73
2023/07/26 06:22:27;;;;;;;6.78;3.70;;;;;;;29.23;54.59;92119.34;5062146;28;20040;-73
2023/07/26 06:24:53;;;;;;;13.77;3.83;;;;;;;29.40;53.02;92123.41;5066593;28;20094;-73
2023/07/26 06:27:25;;;;;;;9.55;4.03;;;;;;;29.54;52.88;92127.41;5066877;28;20102;-73
2023/07/26 06:29:52;;;;;;;8.32;3.38;;;;;;;29.74;52.26;92130.69;5067051;28;20044;-73
2023/07/26 06:32:20;;;;;;;10.45;4.57;;;;;;;29.83;51.24;92117.97;5066075;28;20559;-73
2023/07/26 06:34:47;;;;;;;6.60;4.22;;;;;;;30.04;50.66;92119.38;5048740;28;20126;-73
2023/07/26 06:37:14;;;;;;;9.57;3.75;;;;;;;30.16;49.88;92107.81;5053803;28;20055;-73
2023/07/26 06:39:40;;;;;;;8.45;4.10;;;;;;;30.42;49.27;92108.84;5058375;28;20102;-73
2023/07/26 06:42:07;;;;;;;11.85;4.07;;;;;;;30.54;48.86;92110.47;5066965;28;20121;-73
2023/07/26 06:44:34;;;;;;;6.97;3.65;;;;;;;30.74;48.42;92113.75;5066221;28;20079;-73
2023/07/26 06:47:01;;;;;;;12.45;4.40;;;;;;;30.92;48.34;92113.16;5067069;28;20061;-73
2023/07/26 06:49:29;;;;;;;8.65;3.80;;;;;;;31.13;48.09;92123.16;5066423;28;20106;-73
2023/07/26 06:51:56;;;;;;;7.40;3.67;;;;;;;31.31;46.88;92111.97;5066925;28;20555;-73
2023/07/26 06:54:22;;;;;;;8.45;3.78;;;;;;;31.42;45.16;92109.41;5066307;28;20103;-73
2023/07/26 06:56:49;;;;;;;8.15;3.42;;;;;;;31.41;43.66;92110.50;5067163;28;20090;-73
2023/07/26 06:59:16;;;;;;;17.60;4.05;;;;;;;31.46;43.87;92108.28;5066925;28;20048;-73
2023/07/26 07:01:43;;;;;;;10.00;3.50;;;;;;;31.58;42.86;92098.50;5066097;28;20502;-73
2023/07/26 07:04:10;;;;;;;8.43;4.10;;;;;;;31.75;42.81;92093.66;5066125;28;20462;-73
2023/07/26 07:06:38;;;;;;;10.68;3.53;;;;;;;31.88;42.00;92088.81;5065334;28;20113;-73
2023/07/26 07:09:05;;;;;;;11.75;4.15;;;;;;;31.98;41.08;92093.44;5066935;28;20048;-73
2023/07/26 07:11:32;;;;;;;7.60;2.95;;;;;;;32.10;41.20;92082.47;5066094;28;20098;-73
2023/07/26 07:13:58;;;;;;;8.38;3.20;;;;;;;32.13;40.89;92095.00;5066671;28;20098;-73
2023/07/26 07:16:25;;;;;;;12.52;4.40;;;;;;;32.37;41.00;92087.50;5066002;28;20040;-73
2023/07/26 07:18:52;;;;;;;8.93;3.75;;;;;;;32.48;40.40;92087.53;5066534;28;20437;-73
2023/07/26 07:21:18;;;;;;;8.18;3.50;;;;;;;32.66;39.85;92095.56;5066723;28;20106;-73
2023/07/26 07:23:47;;;;;;;13.43;3.83;;;;;;;32.79;39.85;92087.22;5065023;28;20045;-73
2023/07/26 07:26:15;;;;;;;7.03;3.78;;;;;;;32.96;39.65;92098.25;5063237;28;20062;-73
2023/07/26 07:28:42;;;;;;;8.30;3.88;;;;;;;33.07;39.31;92082.34;5066947;28;21103;-73
2023/07/26 07:31:09;;;;;;;6.65;3.33;;;;;;;33.20;38.69;92091.44;5067025;28;20086;-73
2023/07/26 07:33:36;;;;;;;8.45;3.85;;;;;;;33.21;38.84;92092.22;5070084;28;20098;-73
2023/07/26 07:36:04;;;;;;;8.52;3.08;;;;;;;33.42;38.60;92091.44;5070267;28;20120;-73
2023/07/26 07:38:31;;;;;;;6.75;2.80;;;;;;;33.58;38.08;92102.47;5059580;28;20128;-73
2023/07/26 07:40:59;;;;;;;11.32;3.40;;;;;;;33.71;37.74;92097.50;5070746;28;20113;-73
2023/07/26 07:43:26;;;;;;;10.95;3.25;;;;;;;33.72;36.76;92096.34;5069866;28;20502;-73
2023/07/26 07:45:52;;;;;;;8.73;4.03;;;;;;;33.74;36.53;92095.97;5070350;28;20049;-73
2023/07/26 07:48:19;;;;;;;9.65;3.58;;;;;;;33.68;36.00;92084.94;5066912;28;20137;-73
2023/07/26 07:50:46;;;;;;;6.82;3.08;;;;;;;33.67;35.52;92099.41;5057461;28;20041;-74
2023/07/26 07:53:12;;;;;;;13.07;3.03;;;;;;;33.65;35.60;92088.34;5070068;28;20109;-73
2023/07/26 07:55:40;;;;;;;12.85;3.40;;;;;;;33.71;35.54;92097.50;5070400;28;20044;-73
2023/07/26 07:58:08;;;;;;;6.43;2.70;;;;;;;33.77;35.81;92099.78;5070458;28;20053;-73
2023/07/26 08:00:35;;;;;;;7.18;2.88;;;;;;;33.95;35.68;92105.03;5060414;28;20045;-73
2023/07/26 08:03:03;;;;;;;10.38;3.50;;;;;;;33.85;34.97;92086.03;5055344;28;20045;-73
2023/07/26 08:05:30;;;;;;;6.03;2.95;;;;;;;34.07;33.92;92107.31;5065388;28;20646;-73
2023/07/26 08:07:56;;;;;;;9.50;2.60;;;;;;;34.17;32.27;92115.63;5059984;28;20053;-73
2023/07/26 08:10:23;;;;;;;8.15;3.42;;;;;;;34.29;32.65;92107.22;5052308;28;20465;-73
2023/07/26 08:12:50;;;;;;;15.50;3.28;;;;;;;34.32;30.88;92114.44;5058626;28;20076;-73
2023/07/26 08:15:18;;;;;;;8.75;3.45;;;;;;;34.39;30.85;92117.06;5061611;28;20114;-73
2023/07/26 08:17:45;;;;;;;8.63;2.38;;;;;;;34.43;31.51;92124.31;5065906;28;20045;-71
2023/07/26 08:20:12;;;;;;;13.65;3.22;;;;;;;34.59;30.84;92107.84;5069604;28;20052;-71
2023/07/26 08:22:39;;;;;;;15.00;3.03;;;;;;;34.77;30.71;92110.44;5068098;28;20414;-71
2023/07/26 08:25:07;;;;;;;7.80;2.78;;;;;;;34.70;30.68;92091.81;5070138;28;20057;-71
2023/07/26 08:27:34;;;;;;;12.80;2.80;;;;;;;35.14;31.35;92108.28;5069910;28;20456;-71
2023/07/26 08:30:01;;;;;;;12.55;2.83;;;;;;;35.07;30.84;92084.31;5069361;28;20045;-72
2023/07/26 08:32:29;;;;;;;10.45;3.25;;;;;;;35.48;30.59;92101.53;5065169;28;20044;-72
2023/07/26 08:34:56;;;;;;;9.10;2.90;;;;;;;35.66;30.45;92099.47;5065613;28;20830;-71
2023/07/26 08:37:23;;;;;;;8.07;2.60;;;;;;;35.64;30.21;92103.69;5069977;28;20102;-72
2023/07/26 08:39:50;;;;;;;7.53;2.70;;;;;;;35.56;30.12;92103.75;5069640;28;20091;-72
2023/07/26 08:42:17;;;;;;;10.48;2.47;;;;;;;35.46;29.73;92109.94;5069706;28;20048;-72
2023/07/26 08:44:48;;;;;;;9.18;3.58;;;;;;;35.48;30.33;92094.28;5069734;28;20044;-71
2023/07/26 08:47:15;;;;;;;11.50;3.60;;;;;;;35.51;29.83;92098.06;5068831;28;20515;-72
2023/07/26 08:49:43;;;;;;;11.52;3.30;;;;;;;35.54;30.06;92092.69;5069065;28;20048;-72
2023/07/26 08:52:10;;;;;;;6.32;3.00;;;;;;;35.54;30.50;92103.38;5052166;28;20114;-72
2023/07/26 08:54:38;;;;;;;10.43;3.60;;;;;;;35.50;30.35;92092.00;5068289;28;20106;-72
2023/07/26 08:57:05;;;;;;;7.97;3.58;;;;;;;35.71;30.60;92095.59;5069273;28;20048;-72
2023/07/26 08:59:32;;;;;;;10.40;3.28;;;;;;;35.80;30.71;92071.09;5069002;28;20774;-72
2023/07/26 09:02:00;;;;;;;6.90;2.83;;;;;;;35.92;30.60;92059.13;5068991;28;20044;-72
2023/07/26 09:04:28;;;;;;;8.35;2.15;;;;;;;36.09;30.42;92090.25;5068798;28;20047;-72
2023/07/26 09:06:56;;;;;;;8.73;3.13;;;;;;;36.19;29.76;92091.28;5069189;28;20445;-72
2023/07/26 09:09:22;;;;;;;6.75;2.95;;;;;;;36.12;27.88;92094.06;5069397;28;20465;-72
2023/07/26 09:11:50;;;;;;;8.20;2.33;;;;;;;36.12;29.39;92094.06;5068276;28;20559;-72
2023/07/26 09:14:17;;;;;;;12.55;3.60;;;;;;;36.28;29.75;92103.41;5068506;28;20048;-72
2023/07/26 09:16:45;;;;;;;7.80;2.60;;;;;;;36.37;30.26;92096.41;5068870;28;20052;-72
2023/07/26 09:19:11;;;;;;;10.45;3.25;;;;;;;36.51;29.73;92094.72;5068277;28;20052;-72
2023/07/26 09:21:38;;;;;;;7.65;2.88;;;;;;;36.51;29.42;92090.13;5066179;28;20474;-71
2023/07/26 09:24:07;;;;;;;5.00;2.33;;;;;;;36.47;29.11;92097.44;5057425;28;20041;-72
2023/07/26 09:26:36;;;;;;;8.40;2.30;;;;;;;36.41;29.95;92092.97;5052548;28;20517;-77
2023/07/26 09:29:06;;;;;;;12.68;2.95;;;;;;;36.67;29.45;92094.16;5058532;28;20052;-72
2023/07/26 09:31:34;;;;;;;13.25;3.33;;;;;;;36.85;29.84;92095.81;5067937;28;20102;-72
2023/07/26 09:34:04;;;;;;;5.78;2.38;;;;;;;36.98;29.05;92102.09;5067994;28;20056;-72
2023/07/26 09:36:44;;;;;;;11.23;3.20;;;;;;;36.87;29.17;92086.22;5068518;28;20053;-72
2023/07/26 09:39:13;;;;;;;9.45;2.97;;;;;;;36.79;28.43;92082.16;5067934;28;20056;-72
2023/07/26 09:41:40;;;;;;;6.72;2.80;;;;;;;36.89;29.14;92080.47;5068736;28;20403;-72
2023/07/26 09:44:08;;;;;;;7.97;3.33;;;;;;;37.15;29.54;92104.94;5068468;28;20044;-72
2023/07/26 09:46:48;;;;;;;7.47;2.70;;;;;;;37.10;28.69;92083.97;5067549;28;20079;-72
2023/07/26 09:49:15;;;;;;;10.63;3.05;;;;;;;36.88;28.92;92098.44;5060432;28;20051;-73
2023/07/26 09:51:42;;;;;;;12.88;4.35;;;;;;;37.07;28.65;92095.50;5067673;28;20049;-73
2023/07/26 09:54:10;;;;;;;12.15;4.45;;;;;;;37.24;28.70;92104.44;5063549;28;20148;-72
2023/07/26 09:56:40;;;;;;;11.25;3.53;;;;;;;37.18;27.65;92109.50;5067856;28;20110;-72
2023/07/26 09:59:09;;;;;;;8.63;2.72;;;;;;;37.24;28.32;92107.13;5068081;28;20098;-72
2023/07/26 10:01:40;;;;;;;11.35;2.72;;;;;;;37.29;27.62;92102.03;5055962;28;20049;-72
2023/07/26 10:04:12;;;;;;;7.07;2.55;;;;;;;37.42;27.67;92102.22;5048148;28;20045;-72
2023/07/26 10:06:41;;;;;;;9.07;3.22;;;;;;;37.62;27.53;92112.22;5059655;28;20830;-73
2023/07/26 10:09:10;;;;;;;7.07;2.80;;;;;;;37.56;27.91;92109.25;5068176;28;20078;-72
2023/07/26 10:11:41;;;;;;;5.80;2.35;;;;;;;37.69;26.88;92090.69;5068050;28;20636;-72
2023/07/26 10:14:10;;;;;;;6.97;2.38;;;;;;;37.60;25.96;92082.44;5066851;28;20048;-72
2023/07/26 10:16:37;;;;;;;4.72;1.65;;;;;;;37.38;25.85;92090.81;5067727;28;20048;-72
2023/07/26 10:19:04;;;;;;;12.73;3.08;;;;;;;37.33;25.75;92101.97;5067917;28;20505;-72
2023/07/26 10:21:32;;;;;;;12.13;2.85;;;;;;;37.13;25.56;92107.28;5063987;28;20105;-72
2023/07/26 10:24:02;;;;;;;11.80;3.95;;;;;;;37.29;26.47;92114.66;5066339;28;20433;-72
2023/07/26 10:26:31;;;;;;;10.52;2.65;;;;;;;37.35;27.00;92104.25;5067708;28;20079;-72
2023/07/26 10:29:01;;;;;;;7.75;3.10;;;;;;;37.25;25.64;92098.66;5067555;28;20098;-72
2023/07/26 10:31:28;;;;;;;6.38;2.42;;;;;;;37.26;26.01;92081.44;5067193;28;20087;-72
2023/07/26 10:33:55;;;;;;;6.93;2.33;;;;;;;37.33;26.03;92098.56;5067744;28;20127;-72
2023/07/26 10:36:28;;;;;;;7.22;2.65;;;;;;;37.39;27.15;92092.31;5067612;28;20101;-72
2023/07/26 10:38:54;;;;;;;7.80;2.70;;;;;;;37.42;26.68;92085.38;5063786;28;20048;-73
2023/07/26 10:41:23;;;;;;;9.65;2.67;;;;;;;37.33;27.32;92080.56;5067259;28;20094;-72
2023/07/26 10:43:50;;;;;;;11.50;3.42;;;;;;;37.56;27.10;92079.03;5066953;28;20113;-73
2023/07/26 10:46:20;;;;;;;16.40;3.25;;;;;;;37.50;27.19;92076.06;5047806;28;20098;-72
2023/07/26 10:48:48;;;;;;;11.57;2.65;;;;;;;37.60;26.95;92073.63;5046980;28;20084;-72
2023/07/26 10:51:26;;;;;;;7.75;2.85;;;;;;;37.42;26.93;92064.72;5057064;28;20056;-72
2023/07/26 10:53:54;;;;;;;12.45;3.00;;;;;;;37.49;26.92;92061.19;5067595;28;20109;-72
2023/07/26 10:56:24;;;;;;;12.23;2.95;;;;;;;37.65;27.36;92052.50;5066970;28;20961;-72
2023/07/26 10:58:53;;;;;;;11.20;2.45;;;;;;;37.72;27.28;92050.84;5065539;28;20114;-72
2023/07/26 11:01:40;;;;;;;10.88;2.70;;;;;;;37.69;27.17;92047.06;5065746;28;20052;-72
2023/07/26 11:04:12;;;;;;;5.53;2.65;;;;;;;37.57;27.55;92059.09;5066592;28;20559;-78
2023/07/26 11:06:49;;;;;;;12.85;3.60;;;;;;;37.60;27.15;92039.56;5067842;28;20219;-75
2023/07/26 11:09:20;;;;;;;11.68;3.58;;;;;;;37.57;26.93;92035.75;5067875;28;20059;-75
2023/07/26 11:11:57;;;;;;;11.32;3.28;;;;;;;37.38;26.96;92023.84;5066072;28;20532;-76
2023/07/26 11:14:25;;;;;;;8.10;2.10;;;;;;;37.42;27.22;92037.94;5066522;28;20502;-75
2023/07/26 11:16:53;;;;;;;8.48;3.35;;;;;;;37.51;27.46;92048.13;5069745;28;20048;-75
2023/07/26 11:19:20;;;;;;;8.55;2.85;;;;;;;37.76;28.00;92052.28;5070720;28;20117;-74
2023/07/26 11:21:47;;;;;;;9.13;3.17;;;;;;;37.88;27.85;92037.50;5070384;28;20056;-75
2023/07/26 11:24:14;;;;;;;6.65;3.20;;;;;;;38.07;27.24;92044.06;5070944;28;20045;-75
2023/07/26 11:26:43;;;;;;;7.25;2.55;;;;;;;37.96;27.60;92049.59;5070789;28;20044;-75
2023/07/26 11:29:10;;;;;;;12.88;2.72;;;;;;;37.81;26.62;92029.63;5070528;28;20048;-75
2023/07/26 11:31:37;;;;;;;4.50;2.80;;;;;;;37.73;26.86;92037.03;5069576;28;20088;-75